sensor_id;sensor_type;location;lat;lon;timestamp;pressure;altitude;pressure_sealevel;temperature;humidity
11198;BME280;5655;48.744;9.162;2023-04-08T00:00:53;96336.88;;;9.77;100.00
11198;BME280;5655;48.744;9.162;2023-04-08T00:03:19;96335.81;;;9.59;100.00
11198;BME280;5655;48.744;9.162;2023-04-08T00:05:45;96342.75;;;9.86;100.00
11198;BME280;5655;48.744;9.162;2023-04-08T00:08:10;96342.31;;;9.84;100.00
11198;BME280;5655;48.744;9.162;2023-04-08T00:10:35;96347.81;;;9.69;100.00
11198;BME280;5655;48.744;9.162;2023-04-08T00:13:01;96323.81;;;9.49;100.00
11198;BME280;5655;48.744;9.162;2023-04-08T00:15:26;96346.78;;;9.77;100.00
11198;BME280;5655;48.744;9.162;2023-04-08T00:17:51;96344.59;;;9.60;100.00
11198;BME280;5655;48.744;9.162;2023-04-08T00:20:19;96344.78;;;9.70;100.00
11198;BME280;5655;48.744;9.162;2023-04-08T00:22:44;96337.59;;;9.51;100.00
11198;BME280;5655;48.744;9.162;2023-04-08T00:25:10;96331.16;;;9.33;100.00
11198;BME280;5655;48.744;9.162;2023-04-08T00:27:36;96329.50;;;9.25;100.00
11198;BME280;5655;48.744;9.162;2023-04-08T00:30:01;96327.66;;;9.29;100.00
11198;BME280;5655;48.744;9.162;2023-04-08T00:32:27;96335.56;;;9.45;100.00
11198;BME280;5655;48.744;9.162;2023-04-08T00:34:53;96329.38;;;9.18;100.00
11198;BME280;5655;48.744;9.162;2023-04-08T00:37:18;96330.34;;;9.29;100.00
11198;BME280;5655;48.744;9.162;2023-04-08T00:39:44;96330.38;;;9.33;100.00
11198;BME280;5655;48.744;9.162;2023-04-08T00:42:09;96339.28;;;9.18;100.00
11198;BME280;5655;48.744;9.162;2023-04-08T00:44:35;96339.50;;;8.90;100.00
11198;BME280;5655;48.744;9.162;2023-04-08T00:47:00;96347.78;;;9.04;100.00
11198;BME280;5655;48.744;9.162;2023-04-08T00:49:26;96345.25;;;9.11;100.00
11198;BME280;5655;48.744;9.162;2023-04-08T00:51:52;96361.03;;;9.39;100.00
11198;BME280;5655;48.744;9.162;2023-04-08T00:54:18;96347.19;;;9.33;100.00
11198;BME280;5655;48.744;9.162;2023-04-08T00:56:43;96352.72;;;9.44;100.00
11198;BME280;5655;48.744;9.162;2023-04-08T00:59:10;96357.47;;;9.12;100.00
11198;BME280;5655;48.744;9.162;2023-04-08T01:07:47;96349.13;;;9.14;100.00
11198;BME280;5655;48.744;9.162;2023-04-08T01:09:52;96341.22;;;9.21;100.00
11198;BME280;5655;48.744;9.162;2023-04-08T01:12:25;96349.47;;;9.31;100.00
11198;BME280;5655;48.744;9.162;2023-04-08T01:14:58;96359.31;;;9.27;100.00
11198;BME280;5655;48.744;9.162;2023-04-08T01:17:25;96341.06;;;8.91;100.00
11198;BME280;5655;48.744;9.162;2023-04-08T01:19:51;96345.25;;;9.11;100.00
11198;BME280;5655;48.744;9.162;2023-04-08T01:22:50;96348.41;;;9.17;100.00
11198;BME280;5655;48.744;9.162;2023-04-08T01:25:22;96354.66;;;9.24;100.00
11198;BME280;5655;48.744;9.162;2023-04-08T01:27:48;96350.75;;;9.18;100.00
11198;BME280;5655;48.744;9.162;2023-04-08T01:30:16;96357.47;;;9.12;100.00
11198;BME280;5655;48.744;9.162;2023-04-08T01:32:43;96350.47;;;9.04;100.00
11198;BME280;5655;48.744;9.162;2023-04-08T01:35:10;96356.91;;;9.22;100.00
11198;BME280;5655;48.744;9.162;2023-04-08T01:37:37;96352.69;;;9.02;100.00
11198;BME280;5655;48.744;9.162;2023-04-08T01:40:05;96359.03;;;9.13;100.00
11198;BME280;5655;48.744;9.162;2023-04-08T01:42:32;96346.81;;;8.93;100.00
11198;BME280;5655;48.744;9.162;2023-04-08T01:44:58;96353.03;;;9.20;100.00
11198;BME280;5655;48.744;9.162;2023-04-08T01:47:25;96344.00;;;8.86;100.00
11198;BME280;5655;48.744;9.162;2023-04-08T01:49:51;96351.78;;;9.14;100.00
11198;BME280;5655;48.744;9.162;2023-04-08T01:52:19;96346.84;;;9.16;100.00
11198;BME280;5655;48.744;9.162;2023-04-08T01:54:45;96349.63;;;9.00;100.00
11198;BME280;5655;48.744;9.162;2023-04-08T01:57:14;96337.78;;;9.20;100.00
11198;BME280;5655;48.744;9.162;2023-04-08T01:59:42;96355.19;;;9.33;100.00
11198;BME280;5655;48.744;9.162;2023-04-08T02:02:10;96353.25;;;9.30;100.00
11198;BME280;5655;48.744;9.162;2023-04-08T02:04:37;96350.31;;;9.16;100.00
11198;BME280;5655;48.744;9.162;2023-04-08T02:07:03;96342.44;;;8.85;100.00
11198;BME280;5655;48.744;9.162;2023-04-08T02:09:28;96354.41;;;8.91;100.00
11198;BME280;5655;48.744;9.162;2023-04-08T02:11:54;96346.38;;;8.91;100.00
11198;BME280;5655;48.744;9.162;2023-04-08T02:14:21;96349.47;;;8.74;100.00
11198;BME280;5655;48.744;9.162;2023-04-08T02:16:54;96352.97;;;9.16;100.00
11198;BME280;5655;48.744;9.162;2023-04-08T02:19:28;96356.91;;;9.22;100.00
11198;BME280;5655;48.744;9.162;2023-04-08T02:21:59;96357.47;;;9.31;100.00
11198;BME280;5655;48.744;9.162;2023-04-08T02:24:26;96356.91;;;9.22;100.00
11198;BME280;5655;48.744;9.162;2023-04-08T02:26:54;96352.00;;;9.05;100.00
11198;BME280;5655;48.744;9.162;2023-04-08T02:29:20;96360.69;;;9.21;100.00
11198;BME280;5655;48.744;9.162;2023-04-08T02:31:47;96351.84;;;8.98;100.00
11198;BME280;5655;48.744;9.162;2023-04-08T02:34:14;96351.28;;;8.89;100.00
11198;BME280;5655;48.744;9.162;2023-04-08T02:36:40;96351.03;;;9.13;100.00
11198;BME280;5655;48.744;9.162;2023-04-08T02:39:10;96354.38;;;9.29;100.00
11198;BME280;5655;48.744;9.162;2023-04-08T02:41:35;96367.16;;;9.20;100.00
11198;BME280;5655;48.744;9.162;2023-04-08T02:44:00;96364.56;;;9.24;100.00
11198;BME280;5655;48.744;9.162;2023-04-08T02:46:26;96363.25;;;8.95;100.00
11198;BME280;5655;48.744;9.162;2023-04-08T02:48:51;96357.34;;;9.05;100.00
11198;BME280;5655;48.744;9.162;2023-04-08T02:51:17;96356.50;;;9.01;100.00
11198;BME280;5655;48.744;9.162;2023-04-08T02:53:42;96349.59;;;8.81;100.00
11198;BME280;5655;48.744;9.162;2023-04-08T02:56:10;96355.38;;;9.02;100.00
11198;BME280;5655;48.744;9.162;2023-04-08T02:58:36;96347.16;;;8.72;100.00
11198;BME280;5655;48.744;9.162;2023-04-08T03:01:01;96346.47;;;8.75;100.00
11198;BME280;5655;48.744;9.162;2023-04-08T03:03:27;96359.44;;;8.57;100.00
11198;BME280;5655;48.744;9.162;2023-04-08T03:05:54;96347.94;;;8.53;100.00
11198;BME280;5655;48.744;9.162;2023-04-08T03:08:20;96348.06;;;8.41;100.00
11198;BME280;5655;48.744;9.162;2023-04-08T03:10:45;96359.44;;;8.57;100.00
11198;BME280;5655;48.744;9.162;2023-04-08T03:13:11;96356.19;;;8.68;100.00
11198;BME280;5655;48.744;9.162;2023-04-08T03:15:36;96357.13;;;8.56;100.00
11198;BME280;5655;48.744;9.162;2023-04-08T03:18:02;96350.34;;;8.43;100.00
11198;BME280;5655;48.744;9.162;2023-04-08T03:20:27;96352.50;;;8.37;100.00
11198;BME280;5655;48.744;9.162;2023-04-08T03:22:52;96345.22;;;8.34;100.00
11198;BME280;5655;48.744;9.162;2023-04-08T03:25:18;96358.31;;;8.58;100.00
11198;BME280;5655;48.744;9.162;2023-04-08T03:27:43;96357.13;;;8.56;100.00
11198;BME280;5655;48.744;9.162;2023-04-08T03:30:08;96351.06;;;8.40;100.00
11198;BME280;5655;48.744;9.162;2023-04-08T03:32:34;96357.75;;;8.49;100.00
11198;BME280;5655;48.744;9.162;2023-04-08T03:34:59;96362.22;;;8.45;100.00
11198;BME280;5655;48.744;9.162;2023-04-08T03:37:25;96362.22;;;8.45;100.00
11198;BME280;5655;48.744;9.162;2023-04-08T03:39:50;96360.03;;;8.51;100.00
11198;BME280;5655;48.744;9.162;2023-04-08T03:42:15;96368.16;;;8.74;100.00
11198;BME280;5655;48.744;9.162;2023-04-08T03:44:41;96358.88;;;8.68;100.00
11198;BME280;5655;48.744;9.162;2023-04-08T03:47:06;96368.34;;;8.65;100.00
11198;BME280;5655;48.744;9.162;2023-04-08T03:49:31;96363.66;;;8.78;100.00
11198;BME280;5655;48.744;9.162;2023-04-08T03:51:57;96367.31;;;8.70;100.00
11198;BME280;5655;48.744;9.162;2023-04-08T03:54:22;96366.22;;;8.55;100.00
11198;BME280;5655;48.744;9.162;2023-04-08T03:56:48;96362.53;;;8.98;100.00
11198;BME280;5655;48.744;9.162;2023-04-08T03:59:14;96363.78;;;8.85;100.00
11198;BME280;5655;48.744;9.162;2023-04-08T04:01:39;96370.44;;;9.10;100.00
11198;BME280;5655;48.744;9.162;2023-04-08T04:04:05;96368.16;;;9.12;100.00
11198;BME280;5655;48.744;9.162;2023-04-08T04:06:30;96374.72;;;9.37;100.00
11198;BME280;5655;48.744;9.162;2023-04-08T04:08:56;96366.13;;;9.05;100.00
11198;BME280;5655;48.744;9.162;2023-04-08T04:11:22;96367.97;;;9.01;100.00
11198;BME280;5655;48.744;9.162;2023-04-08T04:13:47;96368.69;;;8.63;100.00
11198;BME280;5655;48.744;9.162;2023-04-08T04:16:12;96359.25;;;8.66;100.00
11198;BME280;5655;48.744;9.162;2023-04-08T04:18:38;96370.69;;;8.86;100.00
11198;BME280;5655;48.744;9.162;2023-04-08T04:21:06;96374.78;;;9.18;100.00
11198;BME280;5655;48.744;9.162;2023-04-08T04:23:32;96371.53;;;8.90;100.00
11198;BME280;5655;48.744;9.162;2023-04-08T04:25:57;96366.34;;;8.78;100.00
11198;BME280;5655;48.744;9.162;2023-04-08T04:28:22;96354.09;;;8.57;100.00
11198;BME280;5655;48.744;9.162;2023-04-08T04:30:48;96359.44;;;8.57;100.00
11198;BME280;5655;48.744;9.162;2023-04-08T04:33:13;96363.66;;;8.78;100.00
11198;BME280;5655;48.744;9.162;2023-04-08T04:35:38;96366.34;;;8.78;100.00
11198;BME280;5655;48.744;9.162;2023-04-08T04:38:04;96363.09;;;8.49;100.00
11198;BME280;5655;48.744;9.162;2023-04-08T04:40:34;96376.28;;;8.81;100.00
11198;BME280;5655;48.744;9.162;2023-04-08T04:43:00;96372.06;;;8.60;100.00
11198;BME280;5655;48.744;9.162;2023-04-08T04:45:25;96377.34;;;8.57;100.00
11198;BME280;5655;48.744;9.162;2023-04-08T04:47:51;96369.66;;;8.36;100.00
11198;BME280;5655;48.744;9.162;2023-04-08T04:50:16;96372.22;;;8.33;100.00
11198;BME280;5655;48.744;9.162;2023-04-08T04:52:41;96369.03;;;8.27;100.00
11198;BME280;5655;48.744;9.162;2023-04-08T04:55:07;96370.41;;;8.21;100.00
11198;BME280;5655;48.744;9.162;2023-04-08T04:57:32;96361.22;;;8.03;100.00
11198;BME280;5655;48.744;9.162;2023-04-08T04:59:58;96375.59;;;8.14;100.00
11198;BME280;5655;48.744;9.162;2023-04-08T05:02:23;96378.25;;;8.14;100.00
11198;BME280;5655;48.744;9.162;2023-04-08T05:04:48;96377.91;;;8.00;100.00
11198;BME280;5655;48.744;9.162;2023-04-08T05:07:13;96374.41;;;7.96;100.00
11198;BME280;5655;48.744;9.162;2023-04-08T05:09:39;96387.53;;;8.20;100.00
11198;BME280;5655;48.744;9.162;2023-04-08T05:12:04;96389.16;;;8.25;100.00
11198;BME280;5655;48.744;9.162;2023-04-08T05:14:30;96391.91;;;8.12;100.00
11198;BME280;5655;48.744;9.162;2023-04-08T05:16:55;96401.28;;;8.53;100.00
11198;BME280;5655;48.744;9.162;2023-04-08T05:19:22;96401.13;;;8.15;100.00
11198;BME280;5655;48.744;9.162;2023-04-08T05:21:47;96391.47;;;8.26;100.00
11198;BME280;5655;48.744;9.162;2023-04-08T05:24:13;96394.59;;;8.12;100.00
11198;BME280;5655;48.744;9.162;2023-04-08T05:26:38;96394.41;;;8.21;100.00
11198;BME280;5655;48.744;9.162;2023-04-08T05:29:03;96400.84;;;8.20;100.00
11198;BME280;5655;48.744;9.162;2023-04-08T05:31:29;96406.59;;;8.53;100.00
11198;BME280;5655;48.744;9.162;2023-04-08T05:33:54;96404.78;;;8.57;100.00
11198;BME280;5655;48.744;9.162;2023-04-08T05:36:19;96408.44;;;8.69;100.00
11198;BME280;5655;48.744;9.162;2023-04-08T05:38:45;96403.97;;;8.38;100.00
11198;BME280;5655;48.744;9.162;2023-04-08T05:41:10;96416.31;;;8.61;100.00
11198;BME280;5655;48.744;9.162;2023-04-08T05:43:36;96420.28;;;8.87;100.00
11198;BME280;5655;48.744;9.162;2023-04-08T05:46:05;96428.88;;;8.96;100.00
11198;BME280;5655;48.744;9.162;2023-04-08T05:48:31;96421.97;;;8.60;100.00
11198;BME280;5655;48.744;9.162;2023-04-08T05:50:57;96427.25;;;8.56;100.00
11198;BME280;5655;48.744;9.162;2023-04-08T05:53:22;96415.84;;;8.09;100.00
11198;BME280;5655;48.744;9.162;2023-04-08T05:55:49;96423.28;;;8.50;100.00
11198;BME280;5655;48.744;9.162;2023-04-08T05:58:14;96425.81;;;8.43;100.00
11198;BME280;5655;48.744;9.162;2023-04-08T06:00:40;96423.59;;;8.64;100.00
11198;BME280;5655;48.744;9.162;2023-04-08T06:03:05;96430.09;;;8.48;100.00
11198;BME280;5655;48.744;9.162;2023-04-08T06:05:30;96436.38;;;8.55;100.00
11198;BME280;5655;48.744;9.162;2023-04-08T06:07:56;96436.47;;;8.43;100.00
11198;BME280;5655;48.744;9.162;2023-04-08T06:10:22;96440.00;;;8.47;100.00
11198;BME280;5655;48.744;9.162;2023-04-08T06:12:47;96442.56;;;8.59;100.00
11198;BME280;5655;48.744;9.162;2023-04-08T06:15:12;96442.72;;;8.67;100.00
11198;BME280;5655;48.744;9.162;2023-04-08T06:17:38;96445.97;;;8.76;100.00
11198;BME280;5655;48.744;9.162;2023-04-08T06:20:06;96440.84;;;8.51;100.00
11198;BME280;5655;48.744;9.162;2023-04-08T06:22:34;96451.22;;;8.72;100.00
11198;BME280;5655;48.744;9.162;2023-04-08T06:25:00;96451.59;;;8.55;100.00
11198;BME280;5655;48.744;9.162;2023-04-08T06:27:25;96448.75;;;8.63;100.00
11198;BME280;5655;48.744;9.162;2023-04-08T06:29:50;96452.16;;;8.80;100.00
11198;BME280;5655;48.744;9.162;2023-04-08T06:32:17;96451.59;;;8.71;100.00
11198;BME280;5655;48.744;9.162;2023-04-08T06:34:44;96461.03;;;9.03;100.00
11198;BME280;5655;48.744;9.162;2023-04-08T06:37:09;96461.28;;;8.79;100.00
11198;BME280;5655;48.744;9.162;2023-04-08T06:39:34;96457.88;;;8.62;100.00
11198;BME280;5655;48.744;9.162;2023-04-08T06:42:00;96456.47;;;8.69;100.00
11198;BME280;5655;48.744;9.162;2023-04-08T06:44:25;96458.16;;;8.57;100.00
11198;BME280;5655;48.744;9.162;2023-04-08T06:46:51;96472.34;;;8.61;100.00
11198;BME280;5655;48.744;9.162;2023-04-08T06:49:16;96462.97;;;8.52;100.00
11198;BME280;5655;48.744;9.162;2023-04-08T06:51:41;96467.97;;;8.53;100.00
11198;BME280;5655;48.744;9.162;2023-04-08T06:54:07;96466.00;;;8.85;100.00
11198;BME280;5655;48.744;9.162;2023-04-08T06:56:34;96477.28;;;9.14;100.00
11198;BME280;5655;48.744;9.162;2023-04-08T06:59:00;96477.13;;;9.06;100.00
11198;BME280;5655;48.744;9.162;2023-04-08T07:01:25;96486.78;;;9.30;100.00
11198;BME280;5655;48.744;9.162;2023-04-08T07:03:50;96478.56;;;8.85;100.00
11198;BME280;5655;48.744;9.162;2023-04-08T07:06:16;96476.38;;;8.71;100.00
11198;BME280;5655;48.744;9.162;2023-04-08T07:08:41;96472.94;;;8.71;100.00
11198;BME280;5655;48.744;9.162;2023-04-08T07:11:06;96477.28;;;8.79;100.00
11198;BME280;5655;48.744;9.162;2023-04-08T07:13:32;96472.16;;;8.54;100.00
11198;BME280;5655;48.744;9.162;2023-04-08T07:15:57;96482.19;;;8.92;100.00
11198;BME280;5655;48.744;9.162;2023-04-08T07:18:23;96487.72;;;9.03;100.00
11198;BME280;5655;48.744;9.162;2023-04-08T07:20:52;96485.81;;;8.84;100.00
11198;BME280;5655;48.744;9.162;2023-04-08T07:23:21;96476.38;;;8.71;100.00
11198;BME280;5655;48.744;9.162;2023-04-08T07:25:47;96482.47;;;8.72;100.00
11198;BME280;5655;48.744;9.162;2023-04-08T07:28:12;96488.16;;;9.05;100.00
11198;BME280;5655;48.744;9.162;2023-04-08T07:30:38;96490.84;;;9.05;100.00
11198;BME280;5655;48.744;9.162;2023-04-08T07:33:03;96498.28;;;8.80;100.00
11198;BME280;5655;48.744;9.162;2023-04-08T07:35:29;96501.31;;;9.14;100.00
11198;BME280;5655;48.744;9.162;2023-04-08T07:37:56;96502.38;;;9.09;100.00
11198;BME280;5655;48.744;9.162;2023-04-08T07:40:22;96492.94;;;8.96;100.00
11198;BME280;5655;48.744;9.162;2023-04-08T07:42:47;96500.94;;;9.15;100.00
11198;BME280;5655;48.744;9.162;2023-04-08T07:45:13;96499.91;;;9.00;100.00
11198;BME280;5655;48.744;9.162;2023-04-08T07:47:38;96500.56;;;9.32;100.00
11198;BME280;5655;48.744;9.162;2023-04-08T07:50:05;96513.22;;;9.54;100.00
11198;BME280;5655;48.744;9.162;2023-04-08T07:52:31;96513.22;;;9.35;100.00
11198;BME280;5655;48.744;9.162;2023-04-08T07:54:56;96517.44;;;9.36;100.00
11198;BME280;5655;48.744;9.162;2023-04-08T07:57:21;96509.41;;;9.36;100.00
11198;BME280;5655;48.744;9.162;2023-04-08T07:59:46;96511.38;;;9.20;100.00
11198;BME280;5655;48.744;9.162;2023-04-08T08:02:12;96515.06;;;9.31;100.00
11198;BME280;5655;48.744;9.162;2023-04-08T08:04:37;96517.88;;;9.57;100.00
11198;BME280;5655;48.744;9.162;2023-04-08T08:07:02;96522.13;;;9.62;100.00
11198;BME280;5655;48.744;9.162;2023-04-08T08:09:28;96515.47;;;9.52;100.00
11198;BME280;5655;48.744;9.162;2023-04-08T08:11:53;96511.75;;;9.57;100.00
11198;BME280;5655;48.744;9.162;2023-04-08T08:14:18;96514.41;;;9.76;100.00
11198;BME280;5655;48.744;9.162;2023-04-08T08:16:44;96526.31;;;9.60;100.00
11198;BME280;5655;48.744;9.162;2023-04-08T08:19:09;96519.69;;;9.34;100.00
11198;BME280;5655;48.744;9.162;2023-04-08T08:21:37;96524.16;;;10.07;100.00
11198;BME280;5655;48.744;9.162;2023-04-08T08:24:03;96535.75;;;10.15;100.00
11198;BME280;5655;48.744;9.162;2023-04-08T08:26:29;96536.63;;;9.99;100.00
11198;BME280;5655;48.744;9.162;2023-04-08T08:28:54;96540.75;;;9.97;100.00
11198;BME280;5655;48.744;9.162;2023-04-08T08:31:19;96540.50;;;10.21;100.00
11198;BME280;5655;48.744;9.162;2023-04-08T08:33:45;96546.38;;;10.53;100.00
11198;BME280;5655;48.744;9.162;2023-04-08T08:36:11;96549.81;;;10.54;100.00
11198;BME280;5655;48.744;9.162;2023-04-08T08:38:37;96553.44;;;10.19;100.00
11198;BME280;5655;48.744;9.162;2023-04-08T08:41:03;96545.06;;;10.21;100.00
11198;BME280;5655;48.744;9.162;2023-04-08T08:43:29;96552.75;;;10.22;100.00
11198;BME280;5655;48.744;9.162;2023-04-08T08:45:58;96557.03;;;10.50;100.00
11198;BME280;5655;48.744;9.162;2023-04-08T08:48:23;96563.75;;;10.63;100.00
11198;BME280;5655;48.744;9.162;2023-04-08T08:50:49;96561.50;;;10.42;100.00
11198;BME280;5655;48.744;9.162;2023-04-08T08:53:15;96558.00;;;10.61;100.00
11198;BME280;5655;48.744;9.162;2023-04-08T08:55:40;96558.56;;;10.51;100.00
11198;BME280;5655;48.744;9.162;2023-04-08T08:58:06;96566.03;;;10.61;100.00
11198;BME280;5655;48.744;9.162;2023-04-08T09:00:41;96570.06;;;10.74;100.00
11198;BME280;5655;48.744;9.162;2023-04-08T09:03:23;96574.16;;;10.68;100.00
11198;BME280;5655;48.744;9.162;2023-04-08T09:05:58;96570.78;;;10.97;100.00
11198;BME280;5655;48.744;9.162;2023-04-08T09:08:30;96573.22;;;11.06;100.00
11198;BME280;5655;48.744;9.162;2023-04-08T09:11:11;96568.00;;;11.13;100.00
11198;BME280;5655;48.744;9.162;2023-04-08T09:13:37;96572.53;;;11.09;100.00
11198;BME280;5655;48.744;9.162;2023-04-08T09:16:05;96572.19;;;11.40;100.00
11198;BME280;5655;48.744;9.162;2023-04-08T09:18:31;96573.16;;;11.55;100.00
11198;BME280;5655;48.744;9.162;2023-04-08T09:21:05;96575.00;;;11.77;100.00
11198;BME280;5655;48.744;9.162;2023-04-08T09:23:41;96574.53;;;12.01;100.00
11198;BME280;5655;48.744;9.162;2023-04-08T09:26:11;96579.88;;;12.01;100.00
11198;BME280;5655;48.744;9.162;2023-04-08T09:28:37;96573.63;;;11.90;100.00
11198;BME280;5655;48.744;9.162;2023-04-08T09:31:20;96578.34;;;12.34;100.00
11198;BME280;5655;48.744;9.162;2023-04-08T09:33:47;96579.34;;;11.59;100.00
11198;BME280;5655;48.744;9.162;2023-04-08T09:36:14;96578.66;;;11.95;100.00
11198;BME280;5655;48.744;9.162;2023-04-08T09:38:40;96579.00;;;11.90;100.00
11198;BME280;5655;48.744;9.162;2023-04-08T09:41:06;96577.34;;;12.12;100.00
11198;BME280;5655;48.744;9.162;2023-04-08T09:43:35;96578.19;;;11.86;100.00
11198;BME280;5655;48.744;9.162;2023-04-08T09:46:07;96582.75;;;11.82;100.00
11198;BME280;5655;48.744;9.162;2023-04-08T09:48:39;96584.38;;;12.27;100.00
11198;BME280;5655;48.744;9.162;2023-04-08T09:51:06;96570.28;;;12.34;100.00
11198;BME280;5655;48.744;9.162;2023-04-08T09:53:46;96576.56;;;12.52;100.00
11198;BME280;5655;48.744;9.162;2023-04-08T09:56:13;96577.22;;;12.82;100.00
11198;BME280;5655;48.744;9.162;2023-04-08T09:58:48;96575.50;;;12.60;100.00
11198;BME280;5655;48.744;9.162;2023-04-08T10:01:21;96580.84;;;12.56;100.00
11198;BME280;5655;48.744;9.162;2023-04-08T10:03:52;96574.34;;;12.61;100.00
11198;BME280;5655;48.744;9.162;2023-04-08T10:06:18;96575.66;;;12.34;100.00
11198;BME280;5655;48.744;9.162;2023-04-08T10:08:46;96586.84;;;12.43;100.00
11198;BME280;5655;48.744;9.162;2023-04-08T10:11:13;96579.34;;;12.59;100.00
11198;BME280;5655;48.744;9.162;2023-04-08T10:13:39;96583.91;;;12.55;100.00
11198;BME280;5655;48.744;9.162;2023-04-08T10:16:19;96584.72;;;13.06;100.00
11198;BME280;5655;48.744;9.162;2023-04-08T10:18:49;96580.84;;;12.60;100.00
11198;BME280;5655;48.744;9.162;2023-04-08T10:21:39;96583.13;;;12.98;100.00
11198;BME280;5655;48.744;9.162;2023-04-08T10:24:10;96582.94;;;12.77;100.00
11198;BME280;5655;48.744;9.162;2023-04-08T10:26:40;96582.19;;;12.77;100.00
11198;BME280;5655;48.744;9.162;2023-04-08T10:31:43;96575.16;;;12.65;100.00
11198;BME280;5655;48.744;9.162;2023-04-08T10:34:16;96585.88;;;13.05;100.00
11198;BME280;5655;48.744;9.162;2023-04-08T10:36:45;96580.66;;;12.79;100.00
11198;BME280;5655;48.744;9.162;2023-04-08T10:39:11;96587.13;;;12.34;100.00
11198;BME280;5655;48.744;9.162;2023-04-08T10:41:47;96583.16;;;12.21;100.00
11198;BME280;5655;48.744;9.162;2023-04-08T10:44:23;96583.41;;;12.42;100.00
11198;BME280;5655;48.744;9.162;2023-04-08T10:46:50;96583.16;;;12.21;100.00
11198;BME280;5655;48.744;9.162;2023-04-08T10:49:15;96590.09;;;12.25;100.00
11198;BME280;5655;48.744;9.162;2023-04-08T10:51:45;96584.84;;;12.33;100.00
11198;BME280;5655;48.744;9.162;2023-04-08T10:54:15;96581.34;;;12.69;100.00
11198;BME280;5655;48.744;9.162;2023-04-08T10:56:45;96582.66;;;12.45;100.00
11198;BME280;5655;48.744;9.162;2023-04-08T10:59:12;96572.91;;;12.30;100.00
11198;BME280;5655;48.744;9.162;2023-04-08T11:01:40;96580.28;;;12.37;100.00
11198;BME280;5655;48.744;9.162;2023-04-08T11:04:13;96581.06;;;12.41;100.00
11198;BME280;5655;48.744;9.162;2023-04-08T11:06:41;96581.75;;;12.34;100.00
11198;BME280;5655;48.744;9.162;2023-04-08T11:09:07;96576.44;;;12.38;100.00
11198;BME280;5655;48.744;9.162;2023-04-08T11:11:33;96577.69;;;12.10;100.00
11198;BME280;5655;48.744;9.162;2023-04-08T11:13:58;96585.16;;;12.27;100.00
11198;BME280;5655;48.744;9.162;2023-04-08T11:16:25;96577.56;;;12.33;100.00
11198;BME280;5655;48.744;9.162;2023-04-08T11:18:52;96579.72;;;11.87;100.00
11198;BME280;5655;48.744;9.162;2023-04-08T11:21:17;96584.44;;;11.97;100.00
11198;BME280;5655;48.744;9.162;2023-04-08T11:23:43;96580.06;;;12.15;100.00
11198;BME280;5655;48.744;9.162;2023-04-08T11:26:09;96582.19;;;11.99;100.00
11198;BME280;5655;48.744;9.162;2023-04-08T11:28:35;96583.97;;;11.62;100.00
11198;BME280;5655;48.744;9.162;2023-04-08T11:31:01;96579.94;;;11.75;100.00
11198;BME280;5655;48.744;9.162;2023-04-08T11:33:30;96572.47;;;12.24;100.00
11198;BME280;5655;48.744;9.162;2023-04-08T11:35:56;96578.56;;;12.21;100.00
11198;BME280;5655;48.744;9.162;2023-04-08T11:38:23;96572.22;;;12.37;100.00
11198;BME280;5655;48.744;9.162;2023-04-08T11:40:56;96579.63;;;12.47;100.00
11198;BME280;5655;48.744;9.162;2023-04-08T11:43:23;96576.44;;;12.38;100.00
11198;BME280;5655;48.744;9.162;2023-04-08T11:45:49;96579.13;;;12.38;100.00
11198;BME280;5655;48.744;9.162;2023-04-08T11:48:15;96577.78;;;12.21;100.00
11198;BME280;5655;48.744;9.162;2023-04-08T11:50:42;96586.06;;;12.05;100.00
11198;BME280;5655;48.744;9.162;2023-04-08T11:53:21;96580.84;;;12.19;100.00
11198;BME280;5655;48.744;9.162;2023-04-08T11:55:47;96573.63;;;11.60;100.00
11198;BME280;5655;48.744;9.162;2023-04-08T11:58:13;96572.09;;;11.89;100.00
11198;BME280;5655;48.744;9.162;2023-04-08T12:00:38;96580.63;;;11.98;100.00
11198;BME280;5655;48.744;9.162;2023-04-08T12:03:06;96569.88;;;12.32;100.00
11198;BME280;5655;48.744;9.162;2023-04-08T12:05:31;96577.94;;;11.98;100.00
11198;BME280;5655;48.744;9.162;2023-04-08T12:07:57;96576.38;;;11.97;100.00
11198;BME280;5655;48.744;9.162;2023-04-08T12:10:22;96583.13;;;12.17;100.00
11198;BME280;5655;48.744;9.162;2023-04-08T12:12:49;96577.69;;;12.10;100.00
11198;BME280;5655;48.744;9.162;2023-04-08T12:15:15;96576.44;;;12.38;100.00
11198;BME280;5655;48.744;9.162;2023-04-08T12:17:40;96580.56;;;12.28;100.00
11198;BME280;5655;48.744;9.162;2023-04-08T12:20:06;96582.91;;;12.30;100.00
11198;BME280;5655;48.744;9.162;2023-04-08T12:22:32;96588.28;;;12.33;100.00
11198;BME280;5655;48.744;9.162;2023-04-08T12:24:57;96582.47;;;12.27;100.00
11198;BME280;5655;48.744;9.162;2023-04-08T12:27:22;96579.75;;;12.24;100.00
11198;BME280;5655;48.744;9.162;2023-04-08T12:29:48;96588.50;;;12.17;100.00
11198;BME280;5655;48.744;9.162;2023-04-08T12:32:14;96587.59;;;12.40;100.00
11198;BME280;5655;48.744;9.162;2023-04-08T12:34:39;96585.03;;;12.54;100.00
11198;BME280;5655;48.744;9.162;2023-04-08T12:37:05;96581.91;;;12.48;100.00
11198;BME280;5655;48.744;9.162;2023-04-08T12:39:30;96583.63;;;11.93;100.00
11198;BME280;5655;48.744;9.162;2023-04-08T12:41:56;96586.63;;;11.88;100.00
11198;BME280;5655;48.744;9.162;2023-04-08T12:44:21;96589.22;;;12.14;100.00
11198;BME280;5655;48.744;9.162;2023-04-08T12:46:46;96581.13;;;12.48;100.00
11198;BME280;5655;48.744;9.162;2023-04-08T12:49:12;96581.03;;;12.34;100.00
11198;BME280;5655;48.744;9.162;2023-04-08T12:51:37;96581.72;;;11.94;100.00
11198;BME280;5655;48.744;9.162;2023-04-08T12:54:03;96582.63;;;12.42;100.00
11198;BME280;5655;48.744;9.162;2023-04-08T12:56:29;96588.69;;;12.35;100.00
11198;BME280;5655;48.744;9.162;2023-04-08T12:58:55;96581.13;;;12.07;100.00
11198;BME280;5655;48.744;9.162;2023-04-08T13:01:21;96575.00;;;12.10;100.00
11198;BME280;5655;48.744;9.162;2023-04-08T13:03:47;96571.00;;;12.31;100.00
11198;BME280;5655;48.744;9.162;2023-04-08T13:06:12;96581.03;;;12.34;100.00
11198;BME280;5655;48.744;9.162;2023-04-08T13:08:38;96577.75;;;12.17;100.00
11198;BME280;5655;48.744;9.162;2023-04-08T13:11:03;96577.03;;;12.20;100.00
11198;BME280;5655;48.744;9.162;2023-04-08T13:13:28;96585.25;;;12.01;100.00